메인 페이지
METAR-TAF:

METAR-TAF

공항 :

마푸투, 모잠비크

위도: 25-55S, 경도: 032-34E, 고도: 39m

현재 날씨관측

예보는 1 시간 0분 전, 18:00시(UTC)에 발표되었습니다.
동남동3kt
온도 21°C
습도 94%
기압 1016 hPa
시정 10km 이상
고도 2000ft 상공 구름 많음

METAR: FQMA 041800Z 11003KT 9999 BKN020 21/20 Q1016 NOSIG

시각: 21:00 (19:00 UTC)

예보

예보는 3 시간 0분 전, 16:00시(UTC)에 발표되었습니다.
예보 대상 시간: 04일 18시부터 05일 24시까지 (UTC)
8kt
시정 10km 이상
고도 2000ft 상공 구름 많음
고도 3000ft 상공 구름 조금, 적란운.
전환 중
05일 00시부터 05일 02시까지 (UTC)
북북서6kt
고도 1500ft 상공 구름 보통
고도 2000ft 상공 구름 많음
전환 중
05일 08시부터 05일 10시까지 (UTC)
동북동14kt
전환 중
05일 19시부터 05일 21시까지 (UTC)
북북서8kt
고도 2500ft 상공 구름 조금

TAF: FQMA 041600Z 0418/0524 10008KT 9999 BKN020 FEW030CB TX29/0513Z TN19/0503Z BECMG 0500/0502 34006KT SCT015 BKN020 BECMG 0508/0510 06014KT BECMG 0519/0521 34008KT FEW025

4,000개 이상의 공항 관측 자료 및 예보 (METAR 및 TAF 보고).

지도상에서 검색 가능한 기상관측소가 노란 점과 빨간 점으로 표시되어 있습니다.

기상관측소 명을 보려면 표시 위로 마우스를 이동하세요.

날씨 관측과 예보를 보려면 클릭하세요.

지도 변경 : 확대하려면 엑스 표시가 있는 녹색 버튼, 축소하려면 빼기 표시가 있는 녹색 버튼, 다음 페이지의 지도를 보려면 녹색 화살표를 클릭하세요.


METAR-TAF: